Kansas City, Missouri
Traffic Map
Current Weather Conditions
Kansas City, Missouri
Overcast
Overcast
38°
Feels Like: 33°
Wind Chill: 33° Ceiling: 1200
Heat Index: 38° Visibility: 10mi
Dew Point: 34° Wind: 6mph
Humidity: 86% Direction: ° ()
Pressure: 30.1in Gusts: 0mph
Raw Report DataKMKC 171954Z VRB05KT 10SM OVC012 03/01 A3010 RMK AO2 SLP197 T00330011
Traffic Incident Summary
Active as of:
Severity:
Category:
InformationThere was an issue retrieving the traffic information for this location. Please try a different location or try again shortly.
Advertisements
Track Severe Weather on mobile